sensor_id;sensor_type;location;lat;lon;timestamp;pressure;altitude;pressure_sealevel;temperature;humidity
46846;BME280;33947;46.804;134.252;2022-09-09T00:02:34;101446.19;;;16.17;73.75
46846;BME280;33947;46.804;134.252;2022-09-09T00:05:58;101506.66;;;16.52;73.51
46846;BME280;33947;46.804;134.252;2022-09-09T00:09:18;101452.28;;;16.23;74.42
46846;BME280;33947;46.804;134.252;2022-09-09T00:12:37;101508.47;;;16.75;74.80
46846;BME280;33947;46.804;134.252;2022-09-09T00:16:20;101443.56;;;16.65;69.46
46846;BME280;33947;46.804;134.252;2022-09-09T00:23:14;101461.19;;;17.63;70.41
46846;BME280;33947;46.804;134.252;2022-09-09T00:32:48;101480.91;;;17.63;69.63
46846;BME280;33947;46.804;134.252;2022-09-09T00:36:00;101476.66;;;17.78;69.67
46846;BME280;33947;46.804;134.252;2022-09-09T00:42:43;101454.69;;;17.69;64.83
46846;BME280;33947;46.804;134.252;2022-09-09T00:52:59;101501.25;;;19.51;64.27
46846;BME280;33947;46.804;134.252;2022-09-09T00:56:16;101529.34;;;21.84;57.49
46846;BME280;33947;46.804;134.252;2022-09-09T00:59:48;101504.63;;;21.44;49.70
46846;BME280;33947;46.804;134.252;2022-09-09T01:03:21;101510.91;;;22.21;50.20
46846;BME280;33947;46.804;134.252;2022-09-09T01:06:33;101518.19;;;22.35;49.60
46846;BME280;33947;46.804;134.252;2022-09-09T01:09:57;101484.59;;;22.83;50.59
46846;BME280;33947;46.804;134.252;2022-09-09T01:13:04;101560.03;;;23.75;43.75
46846;BME280;33947;46.804;134.252;2022-09-09T01:16:16;101554.31;;;24.07;48.50
46846;BME280;33947;46.804;134.252;2022-09-09T01:19:33;101518.16;;;24.19;50.02
46846;BME280;33947;46.804;134.252;2022-09-09T01:22:56;101528.03;;;24.20;39.48
46846;BME280;33947;46.804;134.252;2022-09-09T01:29:15;101493.44;;;23.96;41.80
46846;BME280;33947;46.804;134.252;2022-09-09T01:32:39;101547.66;;;24.77;37.36
46846;BME280;33947;46.804;134.252;2022-09-09T01:36:16;101503.50;;;24.22;40.25
46846;BME280;33947;46.804;134.252;2022-09-09T01:39:23;101498.06;;;24.48;42.58
46846;BME280;33947;46.804;134.252;2022-09-09T01:42:48;101546.34;;;24.96;36.41
46846;BME280;33947;46.804;134.252;2022-09-09T01:45:56;101504.81;;;24.94;38.88
46846;BME280;33947;46.804;134.252;2022-09-09T01:49:05;101510.91;;;24.46;38.73
46846;BME280;33947;46.804;134.252;2022-09-09T01:52:11;101492.09;;;24.42;39.05
46846;BME280;33947;46.804;134.252;2022-09-09T01:55:16;101524.34;;;24.60;39.10
46846;BME280;33947;46.804;134.252;2022-09-09T01:58:32;101522.97;;;24.54;39.05
46846;BME280;33947;46.804;134.252;2022-09-09T02:04:57;101515.53;;;24.18;38.61
46846;BME280;33947;46.804;134.252;2022-09-09T02:08:29;101470.38;;;23.76;38.74
46846;BME280;33947;46.804;134.252;2022-09-09T02:11:44;101498.94;;;23.12;36.51
46846;BME280;33947;46.804;134.252;2022-09-09T02:15:21;101466.47;;;22.40;35.18
46846;BME280;33947;46.804;134.252;2022-09-09T02:18:32;101515.06;;;22.58;34.68
46846;BME280;33947;46.804;134.252;2022-09-09T02:21:42;101525.78;;;22.88;36.89
46846;BME280;33947;46.804;134.252;2022-09-09T02:24:49;101465.88;;;23.07;37.95
46846;BME280;33947;46.804;134.252;2022-09-09T02:27:59;101459.13;;;22.86;35.25
46846;BME280;33947;46.804;134.252;2022-09-09T02:31:06;101535.06;;;22.98;37.93
46846;BME280;33947;46.804;134.252;2022-09-09T02:34:18;101489.22;;;22.66;36.46
46846;BME280;33947;46.804;134.252;2022-09-09T02:37:30;101445.47;;;22.29;37.27
46846;BME280;33947;46.804;134.252;2022-09-09T02:40:37;101431.47;;;22.37;38.10
46846;BME280;33947;46.804;134.252;2022-09-09T02:43:42;101465.25;;;22.46;37.04
46846;BME280;33947;46.804;134.252;2022-09-09T02:50:39;101453.84;;;21.49;33.79
46846;BME280;33947;46.804;134.252;2022-09-09T02:54:17;101513.66;;;21.75;34.14
46846;BME280;33947;46.804;134.252;2022-09-09T02:57:30;101506.50;;;21.74;34.25
46846;BME280;33947;46.804;134.252;2022-09-09T03:00:38;101432.88;;;21.22;34.57
46846;BME280;33947;46.804;134.252;2022-09-09T03:03:44;101438.16;;;21.39;36.85
46846;BME280;33947;46.804;134.252;2022-09-09T03:06:52;101439.47;;;21.48;37.53
46846;BME280;33947;46.804;134.252;2022-09-09T03:09:57;101475.66;;;21.46;37.21
46846;BME280;33947;46.804;134.252;2022-09-09T03:13:04;101446.25;;;20.75;36.69
46846;BME280;33947;46.804;134.252;2022-09-09T03:16:13;101466.78;;;21.11;37.50
46846;BME280;33947;46.804;134.252;2022-09-09T03:19:23;101436.59;;;20.71;37.58
46846;BME280;33947;46.804;134.252;2022-09-09T03:22:28;101423.69;;;20.60;37.78
46846;BME280;33947;46.804;134.252;2022-09-09T03:25:35;101502.75;;;20.96;37.43
46846;BME280;33947;46.804;134.252;2022-09-09T03:28:42;101443.38;;;20.78;36.13
46846;BME280;33947;46.804;134.252;2022-09-09T03:31:52;101386.91;;;20.42;38.06
46846;BME280;33947;46.804;134.252;2022-09-09T03:34:57;101477.41;;;20.99;38.70
46846;BME280;33947;46.804;134.252;2022-09-09T03:38:04;101461.47;;;20.94;38.10
46846;BME280;33947;46.804;134.252;2022-09-09T03:41:10;101441.88;;;20.90;38.16
46846;BME280;33947;46.804;134.252;2022-09-09T03:44:18;101450.47;;;20.81;39.28
46846;BME280;33947;46.804;134.252;2022-09-09T03:47:23;101413.44;;;20.67;39.43
46846;BME280;33947;46.804;134.252;2022-09-09T03:50:33;101429.88;;;20.62;40.22
46846;BME280;33947;46.804;134.252;2022-09-09T03:53:38;101409.66;;;20.53;39.55
46846;BME280;33947;46.804;134.252;2022-09-09T03:56:43;101408.16;;;20.81;40.08
46846;BME280;33947;46.804;134.252;2022-09-09T03:59:50;101409.88;;;20.82;40.21
46846;BME280;33947;46.804;134.252;2022-09-09T04:02:56;101409.13;;;20.47;39.52
46846;BME280;33947;46.804;134.252;2022-09-09T04:06:03;101415.59;;;20.76;41.75
46846;BME280;33947;46.804;134.252;2022-09-09T04:09:08;101393.09;;;20.60;40.89
46846;BME280;33947;46.804;134.252;2022-09-09T04:12:13;101404.03;;;20.74;40.98
46846;BME280;33947;46.804;134.252;2022-09-09T04:15:18;101450.03;;;20.89;40.97
46846;BME280;33947;46.804;134.252;2022-09-09T04:18:24;101422.63;;;20.63;40.08
46846;BME280;33947;46.804;134.252;2022-09-09T04:21:30;101441.03;;;20.72;37.70
46846;BME280;33947;46.804;134.252;2022-09-09T04:24:36;101417.47;;;20.42;39.44
46846;BME280;33947;46.804;134.252;2022-09-09T04:27:42;101447.75;;;20.65;39.39
46846;BME280;33947;46.804;134.252;2022-09-09T04:30:47;101392.75;;;20.34;38.73
46846;BME280;33947;46.804;134.252;2022-09-09T04:33:53;101467.25;;;20.70;38.27
46846;BME280;33947;46.804;134.252;2022-09-09T04:36:58;101446.19;;;20.43;37.54
46846;BME280;33947;46.804;134.252;2022-09-09T04:40:04;101407.44;;;20.28;35.87
46846;BME280;33947;46.804;134.252;2022-09-09T04:43:11;101422.59;;;20.31;38.50
46846;BME280;33947;46.804;134.252;2022-09-09T04:46:18;101383.50;;;20.04;38.58
46846;BME280;33947;46.804;134.252;2022-09-09T04:49:24;101367.25;;;20.06;38.42
46846;BME280;33947;46.804;134.252;2022-09-09T04:52:30;101396.22;;;20.36;38.60
46846;BME280;33947;46.804;134.252;2022-09-09T04:55:36;101394.72;;;20.30;38.28
46846;BME280;33947;46.804;134.252;2022-09-09T04:58:42;101389.56;;;20.25;37.24
46846;BME280;33947;46.804;134.252;2022-09-09T05:01:48;101394.00;;;20.27;38.56
46846;BME280;33947;46.804;134.252;2022-09-09T05:04:56;101442.88;;;20.38;37.43
46846;BME280;33947;46.804;134.252;2022-09-09T05:08:04;101449.84;;;20.42;39.33
46846;BME280;33947;46.804;134.252;2022-09-09T05:11:20;101454.06;;;20.64;37.90
46846;BME280;33947;46.804;134.252;2022-09-09T05:14:27;101412.16;;;20.41;38.36
46846;BME280;33947;46.804;134.252;2022-09-09T05:17:32;101402.31;;;20.39;38.70
46846;BME280;33947;46.804;134.252;2022-09-09T05:20:37;101394.44;;;20.19;38.66
46846;BME280;33947;46.804;134.252;2022-09-09T05:23:44;101413.59;;;20.30;39.00
46846;BME280;33947;46.804;134.252;2022-09-09T05:26:49;101382.47;;;20.07;38.87
46846;BME280;33947;46.804;134.252;2022-09-09T05:29:55;101410.50;;;20.38;39.36
46846;BME280;33947;46.804;134.252;2022-09-09T05:33:01;101404.66;;;20.30;38.90
46846;BME280;33947;46.804;134.252;2022-09-09T05:36:07;101393.88;;;20.30;39.11
46846;BME280;33947;46.804;134.252;2022-09-09T05:39:13;101408.00;;;20.51;39.49
46846;BME280;33947;46.804;134.252;2022-09-09T05:42:18;101396.28;;;20.34;39.54
46846;BME280;33947;46.804;134.252;2022-09-09T05:45:22;101414.94;;;20.39;39.59
46846;BME280;33947;46.804;134.252;2022-09-09T05:48:28;101418.56;;;20.22;39.59
46846;BME280;33947;46.804;134.252;2022-09-09T05:51:53;101409.09;;;20.31;40.08
46846;BME280;33947;46.804;134.252;2022-09-09T05:54:58;101416.34;;;20.46;40.39
46846;BME280;33947;46.804;134.252;2022-09-09T05:58:04;101399.41;;;20.27;41.29
46846;BME280;33947;46.804;134.252;2022-09-09T06:01:14;101414.78;;;20.42;40.80
46846;BME280;33947;46.804;134.252;2022-09-09T06:04:20;101402.38;;;20.22;40.15
46846;BME280;33947;46.804;134.252;2022-09-09T06:07:26;101407.41;;;20.46;40.69
46846;BME280;33947;46.804;134.252;2022-09-09T06:10:31;101403.75;;;20.47;40.74
46846;BME280;33947;46.804;134.252;2022-09-09T06:13:36;101373.16;;;19.97;40.12
46846;BME280;33947;46.804;134.252;2022-09-09T06:16:44;101423.66;;;20.10;39.99
46846;BME280;33947;46.804;134.252;2022-09-09T06:19:54;101409.28;;;20.10;40.53
46846;BME280;33947;46.804;134.252;2022-09-09T06:22:59;101457.44;;;20.18;39.66
46846;BME280;33947;46.804;134.252;2022-09-09T06:26:16;101409.22;;;20.12;40.97
46846;BME280;33947;46.804;134.252;2022-09-09T06:29:24;101435.13;;;20.32;40.65
46846;BME280;33947;46.804;134.252;2022-09-09T06:32:29;101417.72;;;20.04;39.84
46846;BME280;33947;46.804;134.252;2022-09-09T06:35:35;101418.84;;;20.00;40.52
46846;BME280;33947;46.804;134.252;2022-09-09T06:38:43;101456.44;;;20.36;41.08
46846;BME280;33947;46.804;134.252;2022-09-09T06:41:49;101398.59;;;19.91;41.30
46846;BME280;33947;46.804;134.252;2022-09-09T06:45:15;101470.38;;;20.45;41.81
46846;BME280;33947;46.804;134.252;2022-09-09T06:48:27;101426.47;;;20.25;42.67
46846;BME280;33947;46.804;134.252;2022-09-09T06:51:35;101447.50;;;20.18;42.50
46846;BME280;33947;46.804;134.252;2022-09-09T06:54:40;101425.97;;;20.01;42.16
46846;BME280;33947;46.804;134.252;2022-09-09T06:57:45;101417.53;;;19.89;42.10
46846;BME280;33947;46.804;134.252;2022-09-09T07:01:06;101428.56;;;19.85;41.29
46846;BME280;33947;46.804;134.252;2022-09-09T07:04:13;101393.34;;;19.52;41.77
46846;BME280;33947;46.804;134.252;2022-09-09T07:07:20;101394.63;;;19.63;42.68
46846;BME280;33947;46.804;134.252;2022-09-09T07:10:25;101414.84;;;19.72;43.01
46846;BME280;33947;46.804;134.252;2022-09-09T07:13:31;101462.56;;;19.87;41.56
46846;BME280;33947;46.804;134.252;2022-09-09T07:16:36;101448.88;;;19.74;42.14
46846;BME280;33947;46.804;134.252;2022-09-09T07:19:44;101429.03;;;19.75;42.18
46846;BME280;33947;46.804;134.252;2022-09-09T07:22:54;101466.09;;;19.89;39.72
46846;BME280;33947;46.804;134.252;2022-09-09T07:26:01;101437.69;;;19.64;42.70
46846;BME280;33947;46.804;134.252;2022-09-09T07:29:07;101488.19;;;19.78;43.13
46846;BME280;33947;46.804;134.252;2022-09-09T07:32:12;101488.88;;;19.64;42.24
46846;BME280;33947;46.804;134.252;2022-09-09T07:35:17;101448.66;;;19.42;42.16
46846;BME280;33947;46.804;134.252;2022-09-09T07:38:21;101485.47;;;19.61;42.29
46846;BME280;33947;46.804;134.252;2022-09-09T07:41:33;101476.16;;;19.49;41.87
46846;BME280;33947;46.804;134.252;2022-09-09T07:44:39;101473.13;;;19.37;42.71
46846;BME280;33947;46.804;134.252;2022-09-09T07:47:49;101466.88;;;19.37;43.27
46846;BME280;33947;46.804;134.252;2022-09-09T07:51:10;101428.84;;;19.06;44.52
46846;BME280;33947;46.804;134.252;2022-09-09T07:54:17;101488.44;;;19.37;44.66
46846;BME280;33947;46.804;134.252;2022-09-09T07:57:29;101472.06;;;19.22;46.02
46846;BME280;33947;46.804;134.252;2022-09-09T08:00:37;101460.16;;;19.09;46.79
46846;BME280;33947;46.804;134.252;2022-09-09T08:03:45;101483.06;;;19.18;46.88
46846;BME280;33947;46.804;134.252;2022-09-09T08:06:55;101487.66;;;19.16;46.42
46846;BME280;33947;46.804;134.252;2022-09-09T08:10:01;101461.72;;;18.94;46.99
46846;BME280;33947;46.804;134.252;2022-09-09T08:13:08;101457.94;;;18.79;48.64
46846;BME280;33947;46.804;134.252;2022-09-09T08:16:31;101473.72;;;18.68;50.08
46846;BME280;33947;46.804;134.252;2022-09-09T08:19:36;101458.03;;;18.37;50.83
46846;BME280;33947;46.804;134.252;2022-09-09T08:22:46;101468.31;;;18.28;51.19
46846;BME280;33947;46.804;134.252;2022-09-09T08:26:04;101485.41;;;18.27;51.25
46846;BME280;33947;46.804;134.252;2022-09-09T08:29:10;101463.75;;;18.09;51.77
46846;BME280;33947;46.804;134.252;2022-09-09T08:32:20;101479.75;;;18.12;51.44
46846;BME280;33947;46.804;134.252;2022-09-09T08:35:26;101444.91;;;17.88;51.86
46846;BME280;33947;46.804;134.252;2022-09-09T08:38:31;101509.22;;;17.93;55.44
46846;BME280;33947;46.804;134.252;2022-09-09T08:51:59;101465.22;;;17.53;54.18
46846;BME280;33947;46.804;134.252;2022-09-09T08:58:48;101486.25;;;17.41;56.05
46846;BME280;33947;46.804;134.252;2022-09-09T09:02:47;101457.72;;;16.92;58.85
46846;BME280;33947;46.804;134.252;2022-09-09T09:12:45;101473.66;;;16.73;58.82
46846;BME280;33947;46.804;134.252;2022-09-09T09:16:00;101463.50;;;16.58;60.03
46846;BME280;33947;46.804;134.252;2022-09-09T09:19:14;101452.63;;;16.37;60.96
46846;BME280;33947;46.804;134.252;2022-09-09T09:22:43;101505.88;;;16.48;62.78
46846;BME280;33947;46.804;134.252;2022-09-09T09:25:56;101500.06;;;16.35;62.23
46846;BME280;33947;46.804;134.252;2022-09-09T09:29:20;101489.59;;;16.02;63.52
46846;BME280;33947;46.804;134.252;2022-09-09T09:32:31;101483.16;;;15.81;63.59
46846;BME280;33947;46.804;134.252;2022-09-09T09:35:39;101500.50;;;15.97;62.65
46846;BME280;33947;46.804;134.252;2022-09-09T09:38:58;101525.94;;;16.11;62.61
46846;BME280;33947;46.804;134.252;2022-09-09T09:42:25;101540.31;;;16.08;61.82
46846;BME280;33947;46.804;134.252;2022-09-09T09:45:42;101526.13;;;15.77;62.97
46846;BME280;33947;46.804;134.252;2022-09-09T09:49:10;101548.00;;;15.63;63.57
46846;BME280;33947;46.804;134.252;2022-09-09T09:52:19;101542.50;;;15.40;64.56
46846;BME280;33947;46.804;134.252;2022-09-09T09:55:25;101544.81;;;15.22;65.23
46846;BME280;33947;46.804;134.252;2022-09-09T09:58:33;101505.84;;;14.83;65.59
46846;BME280;33947;46.804;134.252;2022-09-09T10:01:38;101538.88;;;14.81;66.69
46846;BME280;33947;46.804;134.252;2022-09-09T10:04:46;101566.69;;;14.75;67.61
46846;BME280;33947;46.804;134.252;2022-09-09T10:08:27;101567.91;;;14.61;69.68
46846;BME280;33947;46.804;134.252;2022-09-09T10:11:53;101532.69;;;14.45;69.14
46846;BME280;33947;46.804;134.252;2022-09-09T10:25:27;101574.06;;;14.32;70.84
46846;BME280;33947;46.804;134.252;2022-09-09T10:35:25;101586.97;;;13.77;71.27
46846;BME280;33947;46.804;134.252;2022-09-09T10:38:47;101588.44;;;13.90;70.85
46846;BME280;33947;46.804;134.252;2022-09-09T10:42:05;101588.91;;;14.08;69.08
46846;BME280;33947;46.804;134.252;2022-09-09T10:45:42;101604.47;;;13.90;70.55
46846;BME280;33947;46.804;134.252;2022-09-09T10:55:40;101594.25;;;13.27;72.76
46846;BME280;33947;46.804;134.252;2022-09-09T11:02:18;101616.53;;;13.25;72.65
46846;BME280;33947;46.804;134.252;2022-09-09T11:05:46;101605.69;;;13.34;72.74
46846;BME280;33947;46.804;134.252;2022-09-09T11:08:53;101566.59;;;12.87;72.19
46846;BME280;33947;46.804;134.252;2022-09-09T11:12:01;101594.75;;;13.02;72.26
46846;BME280;33947;46.804;134.252;2022-09-09T11:15:17;101623.44;;;12.93;74.43
46846;BME280;33947;46.804;134.252;2022-09-09T11:18:23;101584.81;;;12.67;73.97
46846;BME280;33947;46.804;134.252;2022-09-09T11:21:29;101622.00;;;12.74;75.69
46846;BME280;33947;46.804;134.252;2022-09-09T11:24:44;101553.13;;;12.50;73.65
46846;BME280;33947;46.804;134.252;2022-09-09T11:31:44;101611.94;;;12.40;77.44
46846;BME280;33947;46.804;134.252;2022-09-09T11:38:21;101623.34;;;12.47;76.12
46846;BME280;33947;46.804;134.252;2022-09-09T11:41:35;101628.78;;;12.42;76.45
46846;BME280;33947;46.804;134.252;2022-09-09T11:44:42;101588.34;;;12.17;76.21
46846;BME280;33947;46.804;134.252;2022-09-09T11:47:58;101598.84;;;12.26;76.51
46846;BME280;33947;46.804;134.252;2022-09-09T11:51:07;101535.56;;;11.86;75.88
46846;BME280;33947;46.804;134.252;2022-09-09T11:54:33;101607.13;;;12.08;77.33
46846;BME280;33947;46.804;134.252;2022-09-09T11:58:03;101565.91;;;11.76;77.00
46846;BME280;33947;46.804;134.252;2022-09-09T12:01:27;101570.34;;;11.75;77.87
46846;BME280;33947;46.804;134.252;2022-09-09T12:05:07;101616.19;;;11.94;77.65
46846;BME280;33947;46.804;134.252;2022-09-09T12:08:17;101627.53;;;12.10;76.55
46846;BME280;33947;46.804;134.252;2022-09-09T12:11:50;101628.63;;;11.94;78.57
46846;BME280;33947;46.804;134.252;2022-09-09T12:14:57;101634.19;;;11.78;78.73
46846;BME280;33947;46.804;134.252;2022-09-09T12:18:07;101532.91;;;11.25;78.17
46846;BME280;33947;46.804;134.252;2022-09-09T12:21:29;101647.53;;;11.75;78.77
46846;BME280;33947;46.804;134.252;2022-09-09T12:25:00;101639.06;;;11.47;81.08
46846;BME280;33947;46.804;134.252;2022-09-09T12:35:22;101624.53;;;11.71;77.04
46846;BME280;33947;46.804;134.252;2022-09-09T12:38:34;101674.28;;;11.64;78.68
46846;BME280;33947;46.804;134.252;2022-09-09T12:41:40;101535.25;;;10.79;79.79
46846;BME280;33947;46.804;134.252;2022-09-09T12:44:57;101632.19;;;11.27;80.52
46846;BME280;33947;46.804;134.252;2022-09-09T12:48:08;101538.75;;;10.86;78.36
46846;BME280;33947;46.804;134.252;2022-09-09T12:51:30;101539.47;;;10.99;77.98
46846;BME280;33947;46.804;134.252;2022-09-09T12:54:37;101532.56;;;10.84;78.22
46846;BME280;33947;46.804;134.252;2022-09-09T12:57:43;101591.63;;;11.08;78.97
46846;BME280;33947;46.804;134.252;2022-09-09T13:00:56;101657.13;;;11.18;82.23
46846;BME280;33947;46.804;134.252;2022-09-09T13:04:02;101547.88;;;10.59;79.74
46846;BME280;33947;46.804;134.252;2022-09-09T13:07:07;101663.97;;;11.38;80.02
46846;BME280;33947;46.804;134.252;2022-09-09T13:10:19;101654.88;;;11.54;77.00
46846;BME280;33947;46.804;134.252;2022-09-09T13:13:40;101608.47;;;11.08;77.97
46846;BME280;33947;46.804;134.252;2022-09-09T13:17:02;101547.84;;;10.63;79.20
46846;BME280;33947;46.804;134.252;2022-09-09T13:20:17;101587.34;;;10.99;77.67
46846;BME280;33947;46.804;134.252;2022-09-09T13:23:27;101649.94;;;11.25;78.28
46846;BME280;33947;46.804;134.252;2022-09-09T13:26:32;101665.97;;;11.17;78.70
46846;BME280;33947;46.804;134.252;2022-09-09T13:29:38;101673.13;;;11.13;79.56
46846;BME280;33947;46.804;134.252;2022-09-09T13:32:45;101616.84;;;10.74;80.37
46846;BME280;33947;46.804;134.252;2022-09-09T13:36:04;101674.28;;;10.89;82.51
46846;BME280;33947;46.804;134.252;2022-09-09T13:39:16;101515.78;;;9.87;82.77
46846;BME280;33947;46.804;134.252;2022-09-09T13:42:29;101663.75;;;10.80;82.80
46846;BME280;33947;46.804;134.252;2022-09-09T13:45:35;101659.09;;;11.02;80.28
46846;BME280;33947;46.804;134.252;2022-09-09T13:48:56;101500.50;;;10.17;78.93
46846;BME280;33947;46.804;134.252;2022-09-09T13:52:09;101614.00;;;10.90;78.50
46846;BME280;33947;46.804;134.252;2022-09-09T13:55:14;101664.31;;;11.08;78.59
46846;BME280;33947;46.804;134.252;2022-09-09T13:58:20;101579.06;;;10.36;80.16
46846;BME280;33947;46.804;134.252;2022-09-09T14:01:25;101595.03;;;10.35;80.90
46846;BME280;33947;46.804;134.252;2022-09-09T14:04:32;101673.44;;;10.84;80.52
46846;BME280;33947;46.804;134.252;2022-09-09T14:07:39;101537.78;;;10.01;79.13
46846;BME280;33947;46.804;134.252;2022-09-09T14:10:45;101679.88;;;10.58;80.30
46846;BME280;33947;46.804;134.252;2022-09-09T14:13:50;101598.88;;;9.95;82.23
46846;BME280;33947;46.804;134.252;2022-09-09T14:16:55;101567.94;;;9.91;81.22
46846;BME280;33947;46.804;134.252;2022-09-09T14:20:00;101597.94;;;10.02;81.50
46846;BME280;33947;46.804;134.252;2022-09-09T14:23:05;101689.72;;;10.37;81.63
46846;BME280;33947;46.804;134.252;2022-09-09T14:26:10;101639.44;;;10.14;82.70
46846;BME280;33947;46.804;134.252;2022-09-09T14:29:15;101687.94;;;10.44;82.15
46846;BME280;33947;46.804;134.252;2022-09-09T14:32:20;101686.09;;;10.57;81.19
46846;BME280;33947;46.804;134.252;2022-09-09T14:35:26;101517.81;;;9.50;80.89
46846;BME280;33947;46.804;134.252;2022-09-09T14:38:35;101597.31;;;9.67;82.72
46846;BME280;33947;46.804;134.252;2022-09-09T14:41:46;101621.19;;;9.67;82.99
46846;BME280;33947;46.804;134.252;2022-09-09T14:44:52;101661.59;;;10.10;82.92
46846;BME280;33947;46.804;134.252;2022-09-09T14:47:57;101660.78;;;10.06;82.87
46846;BME280;33947;46.804;134.252;2022-09-09T14:51:09;101598.34;;;9.43;83.78
46846;BME280;33947;46.804;134.252;2022-09-09T14:54:14;101631.81;;;9.63;83.68
46846;BME280;33947;46.804;134.252;2022-09-09T14:57:19;101704.03;;;10.21;83.36
46846;BME280;33947;46.804;134.252;2022-09-09T15:00:24;101712.00;;;10.18;83.08
46846;BME280;33947;46.804;134.252;2022-09-09T15:03:29;101620.31;;;9.67;82.71
46846;BME280;33947;46.804;134.252;2022-09-09T15:06:35;101719.00;;;10.33;81.58
46846;BME280;33947;46.804;134.252;2022-09-09T15:09:44;101688.13;;;10.13;81.24
46846;BME280;33947;46.804;134.252;2022-09-09T15:12:48;101686.44;;;10.01;82.70
46846;BME280;33947;46.804;134.252;2022-09-09T15:15:53;101662.59;;;9.92;82.40
46846;BME280;33947;46.804;134.252;2022-09-09T15:19:00;101579.81;;;9.37;82.63
46846;BME280;33947;46.804;134.252;2022-09-09T15:22:06;101672.34;;;9.90;82.34
46846;BME280;33947;46.804;134.252;2022-09-09T15:25:11;101722.72;;;9.99;84.40
46846;BME280;33947;46.804;134.252;2022-09-09T15:28:16;101664.53;;;9.68;85.23
46846;BME280;33947;46.804;134.252;2022-09-09T15:31:23;101594.88;;;9.27;85.36
46846;BME280;33947;46.804;134.252;2022-09-09T15:34:28;101653.03;;;9.63;84.87
46846;BME280;33947;46.804;134.252;2022-09-09T15:37:33;101676.03;;;9.62;84.88
46846;BME280;33947;46.804;134.252;2022-09-09T15:40:37;101575.50;;;9.08;84.67
46846;BME280;33947;46.804;134.252;2022-09-09T15:43:44;101714.88;;;9.85;84.56
46846;BME280;33947;46.804;134.252;2022-09-09T15:46:51;101686.63;;;9.68;84.98
46846;BME280;33947;46.804;134.252;2022-09-09T15:49:58;101591.31;;;9.28;83.67
46846;BME280;33947;46.804;134.252;2022-09-09T15:53:04;101639.03;;;9.36;84.23
46846;BME280;33947;46.804;134.252;2022-09-09T15:56:10;101640.81;;;9.27;84.99
46846;BME280;33947;46.804;134.252;2022-09-09T15:59:15;101697.31;;;9.47;85.53
46846;BME280;33947;46.804;134.252;2022-09-09T16:02:19;101733.44;;;9.79;84.88
46846;BME280;33947;46.804;134.252;2022-09-09T16:05:25;101735.22;;;9.78;85.32
46846;BME280;33947;46.804;134.252;2022-09-09T16:08:35;101699.91;;;9.62;85.11
46846;BME280;33947;46.804;134.252;2022-09-09T16:11:40;101641.75;;;9.14;85.27
46846;BME280;33947;46.804;134.252;2022-09-09T16:14:45;101661.16;;;9.24;84.66
46846;BME280;33947;46.804;134.252;2022-09-09T16:17:49;101620.59;;;9.00;84.47
46846;BME280;33947;46.804;134.252;2022-09-09T16:20:57;101622.31;;;9.15;82.80
46846;BME280;33947;46.804;134.252;2022-09-09T16:24:03;101644.44;;;9.03;84.27
46846;BME280;33947;46.804;134.252;2022-09-09T16:27:08;101672.72;;;9.06;85.19
46846;BME280;33947;46.804;134.252;2022-09-09T16:30:13;101726.56;;;9.33;85.48
46846;BME280;33947;46.804;134.252;2022-09-09T16:33:18;101720.41;;;9.20;86.40
46846;BME280;33947;46.804;134.252;2022-09-09T16:36:25;101709.78;;;9.31;86.10
46846;BME280;33947;46.804;134.252;2022-09-09T16:39:30;101703.63;;;9.18;85.52
46846;BME280;33947;46.804;134.252;2022-09-09T16:42:34;101658.59;;;8.82;85.78
46846;BME280;33947;46.804;134.252;2022-09-09T16:45:43;101680.66;;;9.03;86.27
46846;BME280;33947;46.804;134.252;2022-09-09T16:48:48;101716.88;;;9.15;85.70
46846;BME280;33947;46.804;134.252;2022-09-09T16:51:56;101690.38;;;8.99;85.28
46846;BME280;33947;46.804;134.252;2022-09-09T16:55:01;101691.25;;;9.09;84.94
46846;BME280;33947;46.804;134.252;2022-09-09T16:58:07;101719.53;;;9.07;84.65
46846;BME280;33947;46.804;134.252;2022-09-09T17:01:13;101704.53;;;8.87;85.71
46846;BME280;33947;46.804;134.252;2022-09-09T17:04:20;101671.00;;;8.66;86.31
46846;BME280;33947;46.804;134.252;2022-09-09T17:07:27;101723.06;;;9.03;86.17
46846;BME280;33947;46.804;134.252;2022-09-09T17:10:32;101673.63;;;8.86;85.13
46846;BME280;33947;46.804;134.252;2022-09-09T17:13:40;101686.84;;;9.00;84.31
46846;BME280;33947;46.804;134.252;2022-09-09T17:16:49;101713.31;;;9.25;83.12
46846;BME280;33947;46.804;134.252;2022-09-09T17:19:54;101678.94;;;8.80;83.88
46846;BME280;33947;46.804;134.252;2022-09-09T17:22:59;101725.72;;;8.98;84.51
46846;BME280;33947;46.804;134.252;2022-09-09T17:26:08;101674.53;;;8.69;84.32
46846;BME280;33947;46.804;134.252;2022-09-09T17:29:13;101714.19;;;9.16;83.33
46846;BME280;33947;46.804;134.252;2022-09-09T17:32:18;101687.75;;;8.93;83.02
46846;BME280;33947;46.804;134.252;2022-09-09T17:35:23;101690.41;;;8.93;83.55
46846;BME280;33947;46.804;134.252;2022-09-09T17:38:28;101692.19;;;8.77;84.54
46846;BME280;33947;46.804;134.252;2022-09-09T17:41:34;101684.22;;;8.43;85.67
46846;BME280;33947;46.804;134.252;2022-09-09T17:44:40;101723.06;;;8.84;85.19
46846;BME280;33947;46.804;134.252;2022-09-09T17:47:45;101701.88;;;8.78;84.59